sensor_id;sensor_type;location;lat;lon;timestamp;pressure;altitude;pressure_sealevel;temperature;humidity
13011;BME280;6786;57.632;11.962;2023-05-22T00:02:03;101727.69;;;19.48;48.41
13011;BME280;6786;57.632;11.962;2023-05-22T00:04:33;101722.31;;;19.48;48.42
13011;BME280;6786;57.632;11.962;2023-05-22T00:07:02;101720.63;;;19.47;48.49
13011;BME280;6786;57.632;11.962;2023-05-22T00:09:30;101716.13;;;19.48;48.39
13011;BME280;6786;57.632;11.962;2023-05-22T00:11:58;101717.06;;;19.46;48.48
13011;BME280;6786;57.632;11.962;2023-05-22T00:14:27;101715.25;;;19.47;48.44
13011;BME280;6786;57.632;11.962;2023-05-22T00:16:55;101717.19;;;19.45;48.54
13011;BME280;6786;57.632;11.962;2023-05-22T00:19:24;101721.59;;;19.46;48.49
13011;BME280;6786;57.632;11.962;2023-05-22T00:21:54;101717.94;;;19.47;48.42
13011;BME280;6786;57.632;11.962;2023-05-22T00:24:22;101720.63;;;19.47;48.47
13011;BME280;6786;57.632;11.962;2023-05-22T00:26:50;101703.50;;;19.37;48.58
13011;BME280;6786;57.632;11.962;2023-05-22T00:29:18;101718.91;;;19.46;48.37
13011;BME280;6786;57.632;11.962;2023-05-22T00:31:46;101720.63;;;19.47;48.52
13011;BME280;6786;57.632;11.962;2023-05-22T00:34:15;101715.25;;;19.47;48.49
13011;BME280;6786;57.632;11.962;2023-05-22T00:36:43;101714.28;;;19.48;48.44
13011;BME280;6786;57.632;11.962;2023-05-22T00:39:13;101715.25;;;19.47;48.52
13011;BME280;6786;57.632;11.962;2023-05-22T00:41:41;101713.44;;;19.48;48.52
13011;BME280;6786;57.632;11.962;2023-05-22T00:44:09;101709.88;;;19.47;48.59
13011;BME280;6786;57.632;11.962;2023-05-22T00:46:37;101704.53;;;19.47;48.59
13011;BME280;6786;57.632;11.962;2023-05-22T00:49:06;101710.75;;;19.48;48.55
13011;BME280;6786;57.632;11.962;2023-05-22T00:51:34;101717.81;;;19.48;48.48
13011;BME280;6786;57.632;11.962;2023-05-22T00:54:03;101671.34;;;19.24;48.55
13011;BME280;6786;57.632;11.962;2023-05-22T00:56:33;101706.22;;;19.48;48.59
13011;BME280;6786;57.632;11.962;2023-05-22T00:59:01;101703.53;;;19.48;48.43
13011;BME280;6786;57.632;11.962;2023-05-22T01:01:30;101706.22;;;19.48;48.63
13011;BME280;6786;57.632;11.962;2023-05-22T01:04:05;101703.06;;;19.43;48.65
13011;BME280;6786;57.632;11.962;2023-05-22T01:06:36;101704.53;;;19.47;48.41
13011;BME280;6786;57.632;11.962;2023-05-22T01:09:04;101705.41;;;19.48;48.51
13011;BME280;6786;57.632;11.962;2023-05-22T01:11:37;101637.75;;;19.08;48.50
13011;BME280;6786;57.632;11.962;2023-05-22T01:14:13;101678.63;;;19.22;48.56
13011;BME280;6786;57.632;11.962;2023-05-22T01:16:51;101716.94;;;19.48;48.54
13011;BME280;6786;57.632;11.962;2023-05-22T01:19:51;101697.47;;;19.46;49.07
13011;BME280;6786;57.632;11.962;2023-05-22T01:22:52;101702.81;;;19.46;48.81
13011;BME280;6786;57.632;11.962;2023-05-22T01:28:58;101713.56;;;19.46;49.03
13011;BME280;6786;57.632;11.962;2023-05-22T01:31:36;101711.22;;;19.41;48.83
13011;BME280;6786;57.632;11.962;2023-05-22T01:34:10;101708.31;;;19.44;48.58
13011;BME280;6786;57.632;11.962;2023-05-22T01:36:39;101702.06;;;19.44;48.67
13011;BME280;6786;57.632;11.962;2023-05-22T01:39:08;101711.81;;;19.45;48.63
13011;BME280;6786;57.632;11.962;2023-05-22T01:41:37;101703.78;;;19.45;48.72
13011;BME280;6786;57.632;11.962;2023-05-22T01:44:07;101683.47;;;19.30;48.60
13011;BME280;6786;57.632;11.962;2023-05-22T01:46:36;101698.41;;;19.45;48.73
13011;BME280;6786;57.632;11.962;2023-05-22T01:49:05;101706.44;;;19.45;48.67
13011;BME280;6786;57.632;11.962;2023-05-22T01:51:42;101631.78;;;19.04;48.69
13011;BME280;6786;57.632;11.962;2023-05-22T01:54:16;101703.66;;;19.46;48.68
13011;BME280;6786;57.632;11.962;2023-05-22T01:56:49;101706.34;;;19.46;48.69
13011;BME280;6786;57.632;11.962;2023-05-22T01:59:26;101694.91;;;19.44;48.58
13011;BME280;6786;57.632;11.962;2023-05-22T02:02:01;101702.81;;;19.46;48.78
13011;BME280;6786;57.632;11.962;2023-05-22T02:04:31;101696.72;;;19.44;48.67
13011;BME280;6786;57.632;11.962;2023-05-22T02:07:02;101701.09;;;19.45;48.75
13011;BME280;6786;57.632;11.962;2023-05-22T02:09:31;101700.16;;;19.46;48.77
13011;BME280;6786;57.632;11.962;2023-05-22T02:12:00;101698.28;;;19.46;48.72
13011;BME280;6786;57.632;11.962;2023-05-22T02:14:29;101699.16;;;19.47;48.80
13011;BME280;6786;57.632;11.962;2023-05-22T02:16:58;101692.09;;;19.46;48.77
13011;BME280;6786;57.632;11.962;2023-05-22T02:19:27;101693.81;;;19.47;48.83
13011;BME280;6786;57.632;11.962;2023-05-22T02:21:56;101700.03;;;19.48;48.81
13011;BME280;6786;57.632;11.962;2023-05-22T02:24:24;101688.44;;;19.47;48.80
13011;BME280;6786;57.632;11.962;2023-05-22T02:26:52;101692.09;;;19.46;48.79
13011;BME280;6786;57.632;11.962;2023-05-22T02:29:20;101688.44;;;19.47;48.70
13011;BME280;6786;57.632;11.962;2023-05-22T02:31:48;101685.88;;;19.45;48.79
13011;BME280;6786;57.632;11.962;2023-05-22T02:34:18;101688.44;;;19.47;48.76
13011;BME280;6786;57.632;11.962;2023-05-22T02:36:46;101688.44;;;19.47;48.75
13011;BME280;6786;57.632;11.962;2023-05-22T02:39:16;101696.47;;;19.47;48.85
13011;BME280;6786;57.632;11.962;2023-05-22T02:41:45;101699.16;;;19.47;48.78
13011;BME280;6786;57.632;11.962;2023-05-22T02:44:13;101712.56;;;19.47;48.70
13011;BME280;6786;57.632;11.962;2023-05-22T02:46:41;101700.88;;;19.48;48.79
13011;BME280;6786;57.632;11.962;2023-05-22T02:49:09;101690.13;;;19.48;48.85
13011;BME280;6786;57.632;11.962;2023-05-22T02:51:39;101691.97;;;19.48;48.89
13011;BME280;6786;57.632;11.962;2023-05-22T02:54:07;101696.38;;;19.48;48.68
13011;BME280;6786;57.632;11.962;2023-05-22T02:56:35;101687.56;;;19.46;48.84
13011;BME280;6786;57.632;11.962;2023-05-22T02:59:03;101680.50;;;19.45;48.80
13011;BME280;6786;57.632;11.962;2023-05-22T03:01:31;101693.81;;;19.47;48.90
13011;BME280;6786;57.632;11.962;2023-05-22T03:04:00;101686.84;;;19.44;48.81
13011;BME280;6786;57.632;11.962;2023-05-22T03:06:28;101661.06;;;19.31;48.73
13011;BME280;6786;57.632;11.962;2023-05-22T03:08:59;101688.44;;;19.47;48.79
13011;BME280;6786;57.632;11.962;2023-05-22T03:11:29;101667.03;;;19.34;48.78
13011;BME280;6786;57.632;11.962;2023-05-22T03:13:57;101679.41;;;19.48;48.73
13011;BME280;6786;57.632;11.962;2023-05-22T03:16:25;101683.94;;;19.48;48.83
13011;BME280;6786;57.632;11.962;2023-05-22T03:19:06;101683.94;;;19.48;49.01
13011;BME280;6786;57.632;11.962;2023-05-22T03:21:35;101661.22;;;19.40;48.91
13011;BME280;6786;57.632;11.962;2023-05-22T03:24:05;101679.41;;;19.48;48.83
13011;BME280;6786;57.632;11.962;2023-05-22T03:26:33;101674.91;;;19.48;48.86
13011;BME280;6786;57.632;11.962;2023-05-22T03:29:02;101674.06;;;19.48;48.94
13011;BME280;6786;57.632;11.962;2023-05-22T03:31:31;101627.81;;;19.21;48.82
13011;BME280;6786;57.632;11.962;2023-05-22T03:34:00;101660.38;;;19.40;49.00
13011;BME280;6786;57.632;11.962;2023-05-22T03:36:28;101672.34;;;19.47;48.89
13011;BME280;6786;57.632;11.962;2023-05-22T03:38:59;101677.72;;;19.47;49.00
13011;BME280;6786;57.632;11.962;2023-05-22T03:41:29;101672.59;;;19.44;48.94
13011;BME280;6786;57.632;11.962;2023-05-22T03:43:57;101678.59;;;19.48;48.90
13011;BME280;6786;57.632;11.962;2023-05-22T03:46:25;101672.34;;;19.47;48.93
13011;BME280;6786;57.632;11.962;2023-05-22T03:48:54;101672.34;;;19.47;48.92
13011;BME280;6786;57.632;11.962;2023-05-22T03:51:22;101672.34;;;19.47;48.87
13011;BME280;6786;57.632;11.962;2023-05-22T03:53:50;101680.41;;;19.47;48.82
13011;BME280;6786;57.632;11.962;2023-05-22T03:56:18;101672.34;;;19.47;49.00
13011;BME280;6786;57.632;11.962;2023-05-22T03:58:48;101679.41;;;19.48;48.94
13011;BME280;6786;57.632;11.962;2023-05-22T04:01:17;101677.72;;;19.47;48.91
13011;BME280;6786;57.632;11.962;2023-05-22T04:03:45;101674.06;;;19.48;48.89
13011;BME280;6786;57.632;11.962;2023-05-22T04:06:13;101674.06;;;19.48;48.92
13011;BME280;6786;57.632;11.962;2023-05-22T04:08:41;101668.69;;;19.48;49.05
13011;BME280;6786;57.632;11.962;2023-05-22T04:11:09;101667.84;;;19.48;48.91
13011;BME280;6786;57.632;11.962;2023-05-22T04:13:41;101668.69;;;19.48;48.84
13011;BME280;6786;57.632;11.962;2023-05-22T04:16:10;101665.28;;;19.46;48.88
13011;BME280;6786;57.632;11.962;2023-05-22T04:18:39;101663.31;;;19.48;48.87
13011;BME280;6786;57.632;11.962;2023-05-22T04:21:07;101667.75;;;19.49;48.89
13011;BME280;6786;57.632;11.962;2023-05-22T04:23:35;101666.75;;;19.50;48.93
13011;BME280;6786;57.632;11.962;2023-05-22T04:26:05;101686.50;;;19.49;48.83
13011;BME280;6786;57.632;11.962;2023-05-22T04:28:34;101675.78;;;19.49;49.03
13011;BME280;6786;57.632;11.962;2023-05-22T04:31:03;101652.91;;;19.32;49.08
13011;BME280;6786;57.632;11.962;2023-05-22T04:33:34;101641.56;;;19.29;48.99
13011;BME280;6786;57.632;11.962;2023-05-22T04:36:05;101683.81;;;19.49;49.12
13011;BME280;6786;57.632;11.962;2023-05-22T04:38:38;101674.91;;;19.48;49.00
13011;BME280;6786;57.632;11.962;2023-05-22T04:41:07;101675.78;;;19.49;49.09
13011;BME280;6786;57.632;11.962;2023-05-22T04:43:35;101674.91;;;19.48;49.15
13011;BME280;6786;57.632;11.962;2023-05-22T04:46:04;101666.00;;;19.48;49.13
13011;BME280;6786;57.632;11.962;2023-05-22T04:48:35;101670.41;;;19.49;49.12
13011;BME280;6786;57.632;11.962;2023-05-22T04:51:03;101665.28;;;19.46;48.91
13011;BME280;6786;57.632;11.962;2023-05-22T04:53:32;101659.69;;;19.49;49.14
13011;BME280;6786;57.632;11.962;2023-05-22T04:56:00;101656.50;;;19.44;48.97
13011;BME280;6786;57.632;11.962;2023-05-22T04:58:28;101660.66;;;19.48;48.99
13011;BME280;6786;57.632;11.962;2023-05-22T05:00:57;101657.00;;;19.49;49.04
13011;BME280;6786;57.632;11.962;2023-05-22T05:03:25;101654.34;;;19.49;49.11
13011;BME280;6786;57.632;11.962;2023-05-22T05:05:55;101656.03;;;19.50;49.14
13011;BME280;6786;57.632;11.962;2023-05-22T05:08:25;101655.16;;;19.49;49.12
13011;BME280;6786;57.632;11.962;2023-05-22T05:10:53;101648.97;;;19.49;49.21
13011;BME280;6786;57.632;11.962;2023-05-22T05:13:23;101647.69;;;19.42;49.24
13011;BME280;6786;57.632;11.962;2023-05-22T05:15:51;101583.44;;;19.06;49.23
13011;BME280;6786;57.632;11.962;2023-05-22T05:18:19;101654.34;;;19.49;49.17
13011;BME280;6786;57.632;11.962;2023-05-22T05:20:48;101657.00;;;19.49;49.19
13011;BME280;6786;57.632;11.962;2023-05-22T05:23:17;101609.06;;;19.21;49.09
13011;BME280;6786;57.632;11.962;2023-05-22T05:25:46;101654.34;;;19.49;49.14
13011;BME280;6786;57.632;11.962;2023-05-22T05:28:14;101648.97;;;19.49;49.37
13011;BME280;6786;57.632;11.962;2023-05-22T05:30:42;101597.16;;;19.25;49.32
13011;BME280;6786;57.632;11.962;2023-05-22T05:33:10;101629.44;;;19.47;49.46
13011;BME280;6786;57.632;11.962;2023-05-22T05:35:41;101644.63;;;19.59;49.50
13011;BME280;6786;57.632;11.962;2023-05-22T05:38:09;101613.81;;;19.41;49.11
13011;BME280;6786;57.632;11.962;2023-05-22T05:40:39;101647.78;;;19.64;49.88
13011;BME280;6786;57.632;11.962;2023-05-22T05:43:07;101639.97;;;19.61;49.73
13011;BME280;6786;57.632;11.962;2023-05-22T05:45:35;101633.41;;;19.65;49.90
13011;BME280;6786;57.632;11.962;2023-05-22T05:48:05;101646.72;;;19.67;49.69
13011;BME280;6786;57.632;11.962;2023-05-22T05:50:34;101643.06;;;19.68;49.78
13011;BME280;6786;57.632;11.962;2023-05-22T05:53:02;101612.66;;;19.56;49.80
13011;BME280;6786;57.632;11.962;2023-05-22T05:55:30;101638.31;;;19.71;49.88
13011;BME280;6786;57.632;11.962;2023-05-22T05:58:01;101640.13;;;19.71;49.87
13011;BME280;6786;57.632;11.962;2023-05-22T06:00:29;101634.66;;;19.72;49.86
13011;BME280;6786;57.632;11.962;2023-05-22T06:02:58;101640.75;;;19.74;49.83
13011;BME280;6786;57.632;11.962;2023-05-22T06:05:26;101630.75;;;19.76;49.79
13011;BME280;6786;57.632;11.962;2023-05-22T06:07:55;101600.47;;;19.52;49.77
13011;BME280;6786;57.632;11.962;2023-05-22T06:10:26;101641.25;;;19.79;49.69
13011;BME280;6786;57.632;11.962;2023-05-22T06:12:54;101635.88;;;19.79;49.86
13011;BME280;6786;57.632;11.962;2023-05-22T06:15:24;101642.97;;;19.80;49.76
13011;BME280;6786;57.632;11.962;2023-05-22T06:17:52;101628.59;;;19.81;49.90
13011;BME280;6786;57.632;11.962;2023-05-22T06:20:21;101628.81;;;19.78;49.74
13011;BME280;6786;57.632;11.962;2023-05-22T06:22:50;101624.44;;;19.77;49.71
13011;BME280;6786;57.632;11.962;2023-05-22T06:25:20;101633.72;;;19.84;49.75
13011;BME280;6786;57.632;11.962;2023-05-22T06:27:49;101633.72;;;19.84;49.87
13011;BME280;6786;57.632;11.962;2023-05-22T06:30:18;101629.22;;;19.85;49.85
13011;BME280;6786;57.632;11.962;2023-05-22T06:33:07;101621.88;;;19.87;49.76
13011;BME280;6786;57.632;11.962;2023-05-22T06:35:36;101643.34;;;19.87;49.76
13011;BME280;6786;57.632;11.962;2023-05-22T06:38:04;101628.13;;;19.87;49.72
13011;BME280;6786;57.632;11.962;2023-05-22T06:40:32;101623.84;;;19.85;49.77
13011;BME280;6786;57.632;11.962;2023-05-22T06:43:01;101613.22;;;19.83;49.73
13011;BME280;6786;57.632;11.962;2023-05-22T06:45:29;101624.31;;;19.90;49.83
13011;BME280;6786;57.632;11.962;2023-05-22T06:47:57;101620.06;;;19.87;49.76
13011;BME280;6786;57.632;11.962;2023-05-22T06:50:27;101633.72;;;19.84;49.64
13011;BME280;6786;57.632;11.962;2023-05-22T06:52:55;101619.78;;;19.79;49.97
13011;BME280;6786;57.632;11.962;2023-05-22T06:55:23;101618.31;;;19.75;49.88
13011;BME280;6786;57.632;11.962;2023-05-22T06:57:52;101626.13;;;19.78;49.69
13011;BME280;6786;57.632;11.962;2023-05-22T07:00:20;101627.13;;;19.77;49.70
13011;BME280;6786;57.632;11.962;2023-05-22T07:02:49;101631.00;;;19.73;49.73
13011;BME280;6786;57.632;11.962;2023-05-22T07:05:17;101626.72;;;19.71;49.79
13011;BME280;6786;57.632;11.962;2023-05-22T07:07:47;101578.22;;;19.39;49.77
13011;BME280;6786;57.632;11.962;2023-05-22T07:10:15;101615.38;;;19.67;49.92
13011;BME280;6786;57.632;11.962;2023-05-22T07:12:43;101607.06;;;19.59;49.89
13011;BME280;6786;57.632;11.962;2023-05-22T07:15:11;101615.59;;;19.64;49.96
13011;BME280;6786;57.632;11.962;2023-05-22T07:17:40;101607.56;;;19.64;49.93
13011;BME280;6786;57.632;11.962;2023-05-22T07:20:10;101599.03;;;19.59;50.16
13011;BME280;6786;57.632;11.962;2023-05-22T07:22:41;101613.91;;;19.63;49.98
13011;BME280;6786;57.632;11.962;2023-05-22T07:25:11;101608.06;;;19.58;49.85
13011;BME280;6786;57.632;11.962;2023-05-22T07:27:39;101596.09;;;19.62;49.94
13011;BME280;6786;57.632;11.962;2023-05-22T07:30:08;101605.84;;;19.63;49.92
13011;BME280;6786;57.632;11.962;2023-05-22T07:32:36;101588.41;;;19.58;49.91
13011;BME280;6786;57.632;11.962;2023-05-22T07:35:05;101601.47;;;19.62;49.82
13011;BME280;6786;57.632;11.962;2023-05-22T07:37:34;101596.09;;;19.62;49.98
13011;BME280;6786;57.632;11.962;2023-05-22T07:40:03;101597.81;;;19.63;50.08
13011;BME280;6786;57.632;11.962;2023-05-22T07:42:34;101597.81;;;19.63;49.90
13011;BME280;6786;57.632;11.962;2023-05-22T07:45:05;101589.00;;;19.61;49.91
13011;BME280;6786;57.632;11.962;2023-05-22T07:47:33;101586.94;;;19.54;50.32
13011;BME280;6786;57.632;11.962;2023-05-22T07:50:02;101598.69;;;19.64;49.90
13011;BME280;6786;57.632;11.962;2023-05-22T07:52:30;101603.16;;;19.63;49.86
13011;BME280;6786;57.632;11.962;2023-05-22T07:54:59;101600.59;;;19.62;49.92
13011;BME280;6786;57.632;11.962;2023-05-22T07:57:27;101574.59;;;19.40;49.85
13011;BME280;6786;57.632;11.962;2023-05-22T07:59:57;101591.22;;;19.56;49.93
13011;BME280;6786;57.632;11.962;2023-05-22T08:02:26;101605.09;;;19.61;50.07
13011;BME280;6786;57.632;11.962;2023-05-22T08:04:54;101600.59;;;19.62;49.92
13011;BME280;6786;57.632;11.962;2023-05-22T08:07:25;101608.53;;;19.63;49.98
13011;BME280;6786;57.632;11.962;2023-05-22T08:09:53;101604.03;;;19.64;49.97
13011;BME280;6786;57.632;11.962;2023-05-22T08:12:21;101601.72;;;19.59;49.97
13011;BME280;6786;57.632;11.962;2023-05-22T08:14:49;101607.66;;;19.63;50.11
13011;BME280;6786;57.632;11.962;2023-05-22T08:17:19;101602.41;;;19.61;49.85
13011;BME280;6786;57.632;11.962;2023-05-22T08:19:47;101605.09;;;19.61;49.92
13011;BME280;6786;57.632;11.962;2023-05-22T08:22:16;101608.78;;;19.60;49.95
13011;BME280;6786;57.632;11.962;2023-05-22T08:24:44;101611.22;;;19.63;49.87
13011;BME280;6786;57.632;11.962;2023-05-22T08:27:12;101609.41;;;19.64;49.96
13011;BME280;6786;57.632;11.962;2023-05-22T08:29:41;101583.75;;;19.48;49.74
13011;BME280;6786;57.632;11.962;2023-05-22T08:32:09;101603.16;;;19.63;49.91
13011;BME280;6786;57.632;11.962;2023-05-22T08:34:39;101604.88;;;19.64;49.92
13011;BME280;6786;57.632;11.962;2023-05-22T08:48:40;101562.38;;;19.36;50.04
13011;BME280;6786;57.632;11.962;2023-05-22T08:51:12;101592.31;;;19.54;50.07
13011;BME280;6786;57.632;11.962;2023-05-22T08:53:42;101591.44;;;19.53;50.05
13011;BME280;6786;57.632;11.962;2023-05-22T08:56:11;101593.38;;;19.51;50.11
13011;BME280;6786;57.632;11.962;2023-05-22T08:58:42;101582.66;;;19.51;50.10
13011;BME280;6786;57.632;11.962;2023-05-22T09:01:12;101588.03;;;19.51;50.00
13011;BME280;6786;57.632;11.962;2023-05-22T09:03:41;101580.84;;;19.52;50.00
13011;BME280;6786;57.632;11.962;2023-05-22T09:06:12;101574.38;;;19.54;49.98
13011;BME280;6786;57.632;11.962;2023-05-22T09:08:42;101576.59;;;19.60;50.14
13011;BME280;6786;57.632;11.962;2023-05-22T09:11:10;101576.59;;;19.60;49.89
13011;BME280;6786;57.632;11.962;2023-05-22T09:13:39;101579.16;;;19.62;49.94
13011;BME280;6786;57.632;11.962;2023-05-22T09:16:11;101583.41;;;19.64;49.85
13011;BME280;6786;57.632;11.962;2023-05-22T09:18:41;101577.09;;;19.65;49.85
13011;BME280;6786;57.632;11.962;2023-05-22T09:21:11;101579.78;;;19.65;49.88
13011;BME280;6786;57.632;11.962;2023-05-22T09:24:00;101560.97;;;19.54;49.90
13011;BME280;6786;57.632;11.962;2023-05-22T09:26:28;101579.53;;;19.68;49.84
13011;BME280;6786;57.632;11.962;2023-05-22T09:28:58;101574.19;;;19.68;50.03
13011;BME280;6786;57.632;11.962;2023-05-22T09:31:28;101529.50;;;19.45;49.82
13011;BME280;6786;57.632;11.962;2023-05-22T09:33:57;101565.16;;;19.69;49.99
13011;BME280;6786;57.632;11.962;2023-05-22T09:36:32;101545.88;;;19.64;50.26
13011;BME280;6786;57.632;11.962;2023-05-22T09:39:01;101549.06;;;19.69;50.13
13011;BME280;6786;57.632;11.962;2023-05-22T09:41:33;101542.94;;;19.67;50.24
13011;BME280;6786;57.632;11.962;2023-05-22T09:44:10;101548.31;;;19.67;50.50
13011;BME280;6786;57.632;11.962;2023-05-22T09:46:39;101542.84;;;19.69;50.26
13011;BME280;6786;57.632;11.962;2023-05-22T09:49:08;101545.28;;;19.72;50.30
13011;BME280;6786;57.632;11.962;2023-05-22T09:51:44;101537.00;;;19.75;50.27
13011;BME280;6786;57.632;11.962;2023-05-22T09:54:15;101491.25;;;19.54;50.31
13011;BME280;6786;57.632;11.962;2023-05-22T09:56:46;101521.63;;;19.66;50.38
13011;BME280;6786;57.632;11.962;2023-05-22T09:59:20;101529.31;;;19.70;50.19
13011;BME280;6786;57.632;11.962;2023-05-22T10:01:49;101524.19;;;19.67;50.34
13011;BME280;6786;57.632;11.962;2023-05-22T10:04:21;101517.13;;;19.66;50.40
13011;BME280;6786;57.632;11.962;2023-05-22T10:06:52;101464.41;;;19.32;50.44
13011;BME280;6786;57.632;11.962;2023-05-22T10:09:23;101525.41;;;19.63;50.26
13011;BME280;6786;57.632;11.962;2023-05-22T10:11:53;101517.34;;;19.63;50.20
13011;BME280;6786;57.632;11.962;2023-05-22T10:14:22;101512.34;;;19.59;50.31
13011;BME280;6786;57.632;11.962;2023-05-22T10:16:53;101505.16;;;19.59;50.19
13011;BME280;6786;57.632;11.962;2023-05-22T10:19:23;101505.16;;;19.59;50.17
13011;BME280;6786;57.632;11.962;2023-05-22T10:21:59;101455.38;;;19.33;50.40
13011;BME280;6786;57.632;11.962;2023-05-22T10:24:32;101492.75;;;19.58;50.24
13011;BME280;6786;57.632;11.962;2023-05-22T10:27:00;101406.38;;;19.09;50.13
13011;BME280;6786;57.632;11.962;2023-05-22T10:29:35;101481.16;;;19.58;50.26
13011;BME280;6786;57.632;11.962;2023-05-22T10:32:17;101461.53;;;19.46;49.95
13011;BME280;6786;57.632;11.962;2023-05-22T10:34:52;101475.03;;;19.56;50.06
13011;BME280;6786;57.632;11.962;2023-05-22T10:37:46;101466.16;;;19.55;50.49
13011;BME280;6786;57.632;11.962;2023-05-22T10:40:20;101466.16;;;19.55;50.18
13011;BME280;6786;57.632;11.962;2023-05-22T10:42:58;101440.31;;;19.43;50.16
13011;BME280;6786;57.632;11.962;2023-05-22T10:45:27;101453.97;;;19.51;50.05
13011;BME280;6786;57.632;11.962;2023-05-22T10:48:05;101456.63;;;19.51;50.36
13011;BME280;6786;57.632;11.962;2023-05-22T10:50:34;101454.94;;;19.50;50.11
13011;BME280;6786;57.632;11.962;2023-05-22T10:53:26;101468.34;;;19.50;50.54
13011;BME280;6786;57.632;11.962;2023-05-22T10:55:58;101452.50;;;19.47;50.18
13011;BME280;6786;57.632;11.962;2023-05-22T10:58:29;101442.63;;;19.48;50.25
13011;BME280;6786;57.632;11.962;2023-05-22T11:01:09;101448.84;;;19.48;50.44
13011;BME280;6786;57.632;11.962;2023-05-22T11:03:55;101405.91;;;19.26;50.61
13011;BME280;6786;57.632;11.962;2023-05-22T11:06:38;101428.50;;;19.45;50.51
13011;BME280;6786;57.632;11.962;2023-05-22T11:09:26;101434.72;;;19.46;50.60
13011;BME280;6786;57.632;11.962;2023-05-22T11:12:18;101440.06;;;19.46;50.67
13011;BME280;6786;57.632;11.962;2023-05-22T11:14:49;101433.00;;;19.45;50.16
13011;BME280;6786;57.632;11.962;2023-05-22T11:17:20;101420.19;;;19.37;50.12
13011;BME280;6786;57.632;11.962;2023-05-22T11:19:59;101424.00;;;19.46;50.43
13011;BME280;6786;57.632;11.962;2023-05-22T11:22:32;101422.25;;;19.45;50.11
13011;BME280;6786;57.632;11.962;2023-05-22T11:25:05;101416.91;;;19.45;50.29
13011;BME280;6786;57.632;11.962;2023-05-22T11:27:35;101415.22;;;19.44;50.18
13011;BME280;6786;57.632;11.962;2023-05-22T11:30:05;101397.03;;;19.36;50.21
13011;BME280;6786;57.632;11.962;2023-05-22T11:32:35;101409.84;;;19.44;50.21
13011;BME280;6786;57.632;11.962;2023-05-22T11:35:05;101411.53;;;19.45;50.30
13011;BME280;6786;57.632;11.962;2023-05-22T11:37:37;101406.19;;;19.45;50.25
13011;BME280;6786;57.632;11.962;2023-05-22T11:40:09;101359.81;;;19.21;50.08
13011;BME280;6786;57.632;11.962;2023-05-22T11:42:37;101400.81;;;19.45;50.42
13011;BME280;6786;57.632;11.962;2023-05-22T11:45:06;101398.13;;;19.45;50.17
13011;BME280;6786;57.632;11.962;2023-05-22T11:47:36;101390.09;;;19.45;50.23
13011;BME280;6786;57.632;11.962;2023-05-22T11:50:08;101392.78;;;19.45;50.38
13011;BME280;6786;57.632;11.962;2023-05-22T11:52:38;101400.81;;;19.45;50.31
13011;BME280;6786;57.632;11.962;2023-05-22T11:55:09;101383.03;;;19.44;50.38
13011;BME280;6786;57.632;11.962;2023-05-22T11:57:37;101375.97;;;19.43;50.37
13011;BME280;6786;57.632;11.962;2023-05-22T12:00:07;101373.41;;;19.41;50.07
13011;BME280;6786;57.632;11.962;2023-05-22T12:02:36;101370.63;;;19.43;50.26
13011;BME280;6786;57.632;11.962;2023-05-22T12:05:05;101366.94;;;19.44;50.28
13011;BME280;6786;57.632;11.962;2023-05-22T12:07:36;101366.94;;;19.44;50.31
13011;BME280;6786;57.632;11.962;2023-05-22T12:10:07;101343.81;;;19.43;50.30
13011;BME280;6786;57.632;11.962;2023-05-22T12:12:36;101342.31;;;19.39;50.39
13011;BME280;6786;57.632;11.962;2023-05-22T12:15:07;101339.28;;;19.43;50.31
13011;BME280;6786;57.632;11.962;2023-05-22T12:17:35;101340.13;;;19.44;50.33
13011;BME280;6786;57.632;11.962;2023-05-22T12:20:05;101341.00;;;19.44;50.29
13011;BME280;6786;57.632;11.962;2023-05-22T12:22:39;101340.13;;;19.44;50.33
13011;BME280;6786;57.632;11.962;2023-05-22T12:25:13;101279.69;;;19.18;50.30
13011;BME280;6786;57.632;11.962;2023-05-22T12:27:43;101324.06;;;19.44;50.39
13011;BME280;6786;57.632;11.962;2023-05-22T12:30:13;101320.88;;;19.39;50.40
13011;BME280;6786;57.632;11.962;2023-05-22T12:32:46;101318.69;;;19.44;50.36
13011;BME280;6786;57.632;11.962;2023-05-22T12:35:15;101320.38;;;19.45;50.29
13011;BME280;6786;57.632;11.962;2023-05-22T12:37:47;101308.84;;;19.44;50.37
13011;BME280;6786;57.632;11.962;2023-05-22T12:40:17;101306.53;;;19.40;50.43
13011;BME280;6786;57.632;11.962;2023-05-22T12:42:48;101318.69;;;19.44;50.23
13011;BME280;6786;57.632;11.962;2023-05-22T12:45:18;101314.19;;;19.44;50.27
13011;BME280;6786;57.632;11.962;2023-05-22T12:47:49;101307.97;;;19.44;50.33
13011;BME280;6786;57.632;11.962;2023-05-22T12:50:26;101270.44;;;19.22;50.52
13011;BME280;6786;57.632;11.962;2023-05-22T12:53:00;101320.38;;;19.45;50.33
13011;BME280;6786;57.632;11.962;2023-05-22T12:55:30;101301.16;;;19.40;50.20
13011;BME280;6786;57.632;11.962;2023-05-22T12:57:58;101311.63;;;19.43;50.36
13011;BME280;6786;57.632;11.962;2023-05-22T13:00:26;101301.16;;;19.40;50.40
13011;BME280;6786;57.632;11.962;2023-05-22T13:02:54;101301.03;;;19.41;50.25
13011;BME280;6786;57.632;11.962;2023-05-22T13:05:23;101285.19;;;19.27;50.33
13011;BME280;6786;57.632;11.962;2023-05-22T13:07:52;101266.78;;;19.23;50.23
13011;BME280;6786;57.632;11.962;2023-05-22T13:10:20;101243.63;;;19.11;50.32
13011;BME280;6786;57.632;11.962;2023-05-22T13:12:50;101292.00;;;19.42;50.35
13011;BME280;6786;57.632;11.962;2023-05-22T13:15:20;101283.59;;;19.36;50.35
13011;BME280;6786;57.632;11.962;2023-05-22T13:17:48;101291.03;;;19.43;50.39
13011;BME280;6786;57.632;11.962;2023-05-22T13:20:17;101298.22;;;19.43;50.40
13011;BME280;6786;57.632;11.962;2023-05-22T13:22:45;101289.22;;;19.44;50.48